createdAt,value
2022-11-12T00:01:17.221Z,11.63
2022-11-12T00:03:45.338Z,11.68
2022-11-12T00:06:13.330Z,13.13
2022-11-12T00:08:41.411Z,13.95
2022-11-12T00:11:10.803Z,13.93
2022-11-12T00:13:38.959Z,12.70
2022-11-12T00:16:07.762Z,12.90
2022-11-12T00:18:35.782Z,12.77
2022-11-12T00:21:03.846Z,13.63
2022-11-12T00:23:31.856Z,13.52
2022-11-12T00:26:01.055Z,12.88
2022-11-12T00:28:36.332Z,12.50
2022-11-12T00:31:10.846Z,12.00
2022-11-12T00:33:42.131Z,13.00
2022-11-12T00:36:10.791Z,13.18
2022-11-12T00:38:38.813Z,15.32
2022-11-12T00:41:07.167Z,15.05
2022-11-12T00:43:36.541Z,14.00
2022-11-12T00:46:05.068Z,14.32
2022-11-12T00:48:33.060Z,14.20
2022-11-12T00:51:02.674Z,15.57
2022-11-12T00:53:30.674Z,15.00
2022-11-12T00:56:02.840Z,14.63
2022-11-12T00:58:31.690Z,15.90
2022-11-12T01:01:06.450Z,15.00
2022-11-12T01:03:34.568Z,15.02
2022-11-12T01:06:06.151Z,14.88
2022-11-12T01:08:34.279Z,14.85
2022-11-12T01:11:10.283Z,15.07
2022-11-12T01:13:44.192Z,15.90
2022-11-12T01:16:15.796Z,14.40
2022-11-12T01:18:44.429Z,16.15
2022-11-12T01:21:13.093Z,14.98
2022-11-12T01:23:42.285Z,13.70
2022-11-12T01:26:11.997Z,14.32
2022-11-12T01:28:40.538Z,14.13
2022-11-12T01:31:15.085Z,13.07
2022-11-12T01:33:43.845Z,13.45
2022-11-12T01:36:13.472Z,12.73
2022-11-12T01:38:42.771Z,13.23
2022-11-12T01:41:13.461Z,12.18
2022-11-12T01:43:41.546Z,13.35
2022-11-12T01:46:19.332Z,11.70
2022-11-12T01:48:50.988Z,12.25
2022-11-12T01:51:21.487Z,12.82
2022-11-12T01:53:53.518Z,13.57
2022-11-12T01:56:23.298Z,13.25
2022-11-12T01:58:56.942Z,14.18
2022-11-12T02:01:26.987Z,14.77
2022-11-12T02:03:55.182Z,15.10
2022-11-12T02:06:24.891Z,15.75
2022-11-12T02:08:53.214Z,14.55
2022-11-12T02:11:22.650Z,13.60
2022-11-12T02:13:58.107Z,14.65
2022-11-12T02:16:31.374Z,13.98
2022-11-12T02:18:59.402Z,13.80
2022-11-12T02:21:29.405Z,14.20
2022-11-12T02:24:02.468Z,13.60
2022-11-12T02:26:34.333Z,14.60
2022-11-12T02:29:03.063Z,14.45
2022-11-12T02:31:31.471Z,14.80
2022-11-12T02:33:59.591Z,16.50
2022-11-12T02:36:30.735Z,15.75
2022-11-12T02:39:01.493Z,15.80
2022-11-12T02:41:30.021Z,15.38
2022-11-12T02:43:58.238Z,15.73
2022-11-12T02:46:26.277Z,15.70
2022-11-12T02:48:54.251Z,16.63
2022-11-12T02:51:22.231Z,17.35
2022-11-12T02:54:07.769Z,16.08
2022-11-12T02:56:36.267Z,17.10
2022-11-12T02:59:04.273Z,17.27
2022-11-12T03:01:32.458Z,16.23
2022-11-12T03:04:00.610Z,16.30
2022-11-12T03:06:28.564Z,15.93
2022-11-12T03:08:57.920Z,14.48
2022-11-12T03:11:25.932Z,17.30
2022-11-12T03:13:53.887Z,15.68
2022-11-12T03:16:21.812Z,14.77
2022-11-12T03:18:49.794Z,14.75
2022-11-12T03:21:17.731Z,13.20
2022-11-12T03:23:45.791Z,13.07
2022-11-12T03:26:15.093Z,13.90
2022-11-12T03:28:43.172Z,13.45
2022-11-12T03:31:11.956Z,13.77
2022-11-12T03:33:40.441Z,13.93
2022-11-12T03:36:08.952Z,14.70
2022-11-12T03:38:36.947Z,14.07
2022-11-12T03:41:05.038Z,14.20
2022-11-12T03:43:34.480Z,17.10
2022-11-12T03:46:02.889Z,17.35
2022-11-12T03:48:30.856Z,15.32
2022-11-12T03:50:59.213Z,17.40
2022-11-12T03:53:27.906Z,16.35
2022-11-12T03:55:58.684Z,15.02
2022-11-12T03:58:27.157Z,14.30
2022-11-12T04:00:56.913Z,14.98
2022-11-12T04:03:24.925Z,14.02
2022-11-12T04:06:10.228Z,14.48
2022-11-12T04:08:38.314Z,13.35
2022-11-12T04:11:09.120Z,14.35
2022-11-12T04:13:38.638Z,13.80
2022-11-12T04:16:27.789Z,14.75
2022-11-12T04:19:16.041Z,16.20
2022-11-12T04:21:51.832Z,16.13
2022-11-12T04:24:39.273Z,15.52
2022-11-12T04:27:08.263Z,15.93
2022-11-12T04:29:53.652Z,16.30
2022-11-12T04:32:23.385Z,15.73
2022-11-12T04:34:51.394Z,16.23
2022-11-12T04:37:23.340Z,15.75
2022-11-12T04:39:52.020Z,16.02
2022-11-12T04:42:38.398Z,16.63
2022-11-12T04:45:09.053Z,14.82
2022-11-12T04:47:39.887Z,14.57
2022-11-12T04:50:13.976Z,14.93
2022-11-12T04:52:41.978Z,14.60
2022-11-12T04:55:11.867Z,16.10
2022-11-12T04:57:40.384Z,18.63
2022-11-12T05:00:09.647Z,18.08
2022-11-12T05:02:39.030Z,15.52
2022-11-12T05:05:07.763Z,15.27
2022-11-12T05:07:35.851Z,16.25
2022-11-12T05:10:03.916Z,15.15
2022-11-12T05:12:31.923Z,15.70
2022-11-12T05:14:59.981Z,15.32
2022-11-12T05:17:28.016Z,16.02
2022-11-12T05:19:57.388Z,24.30
2022-11-12T05:22:42.598Z,18.45
2022-11-12T05:25:13.492Z,16.88
2022-11-12T05:27:41.497Z,18.42
2022-11-12T05:30:11.004Z,19.00
2022-11-12T05:32:39.100Z,19.23
2022-11-12T05:35:09.131Z,12.82
2022-11-12T05:37:37.208Z,19.33
2022-11-12T05:40:05.907Z,22.45
2022-11-12T05:42:34.036Z,14.10
2022-11-12T05:45:02.016Z,21.33
2022-11-12T05:47:30.094Z,25.88
2022-11-12T05:49:58.148Z,19.67
2022-11-12T05:52:27.610Z,17.67
2022-11-12T05:54:55.617Z,18.58
2022-11-12T05:57:23.672Z,17.80
2022-11-12T05:59:51.713Z,17.60
2022-11-12T06:02:19.766Z,16.40
2022-11-12T06:04:47.866Z,16.63
2022-11-12T06:07:17.211Z,16.52
2022-11-12T06:09:46.743Z,15.05
2022-11-12T06:12:14.746Z,14.95
2022-11-12T06:14:42.778Z,15.48
2022-11-12T06:17:10.792Z,16.77
2022-11-12T06:19:41.627Z,15.85
2022-11-12T06:22:09.600Z,17.17
2022-11-12T06:24:37.588Z,17.08
2022-11-12T06:27:07.076Z,17.38
2022-11-12T06:29:35.123Z,16.73
2022-11-12T06:32:03.167Z,16.92
2022-11-12T06:34:31.182Z,16.63
2022-11-12T06:36:59.144Z,15.93
2022-11-12T06:39:27.181Z,15.50
2022-11-12T06:41:55.208Z,15.40
2022-11-12T06:44:24.664Z,14.45
2022-11-12T06:46:52.720Z,16.08
2022-11-12T06:49:20.955Z,14.80
2022-11-12T06:51:51.626Z,14.82
2022-11-12T06:54:19.773Z,14.68
2022-11-12T06:56:49.727Z,13.68
2022-11-12T06:59:17.743Z,14.18
2022-11-12T07:01:47.248Z,14.35
2022-11-12T07:04:15.267Z,14.63
2022-11-12T07:06:43.381Z,13.43
2022-11-12T07:09:11.913Z,12.90
2022-11-12T07:11:40.106Z,12.27
2022-11-12T07:14:08.124Z,13.02
2022-11-12T07:16:36.421Z,13.10
2022-11-12T07:19:06.028Z,13.10
2022-11-12T07:21:34.095Z,13.15
2022-11-12T07:24:02.133Z,12.40
2022-11-12T07:26:30.152Z,11.77
2022-11-12T07:28:59.511Z,12.00
2022-11-12T07:31:29.595Z,11.73
2022-11-12T07:33:57.665Z,12.02
2022-11-12T07:36:27.104Z,12.35
2022-11-12T07:38:55.826Z,13.15
2022-11-12T07:41:25.779Z,17.88
2022-11-12T07:43:57.962Z,23.30
2022-11-12T07:46:27.924Z,23.33
2022-11-12T07:48:56.316Z,19.00
2022-11-12T07:51:27.457Z,19.38
2022-11-12T07:53:59.516Z,19.38
2022-11-12T07:56:29.288Z,17.67
2022-11-12T07:58:57.403Z,15.93
2022-11-12T08:01:30.282Z,16.73
2022-11-12T08:03:58.739Z,16.30
2022-11-12T08:06:28.750Z,17.90
2022-11-12T08:08:58.005Z,19.20
2022-11-12T08:11:29.011Z,21.15
2022-11-12T08:13:57.268Z,31.42
2022-11-12T08:16:31.191Z,26.75
2022-11-12T08:18:59.479Z,27.65
2022-11-12T08:21:29.285Z,25.35
2022-11-12T08:23:58.147Z,20.98
2022-11-12T08:26:26.625Z,19.42
2022-11-12T08:28:58.332Z,25.85
2022-11-12T08:31:29.147Z,24.85
2022-11-12T08:33:57.236Z,28.52
2022-11-12T08:36:28.696Z,14.10
2022-11-12T08:38:58.738Z,10.88
2022-11-12T08:41:31.407Z,12.35
2022-11-12T08:44:08.528Z,10.25
2022-11-12T08:46:39.528Z,10.25
2022-11-12T08:49:07.535Z,11.50
2022-11-12T08:51:36.982Z,9.90
2022-11-12T08:54:05.295Z,11.30
2022-11-12T08:56:34.061Z,11.48
2022-11-12T08:59:07.049Z,11.90
2022-11-12T09:01:35.502Z,11.35
2022-11-12T09:04:03.675Z,11.00
2022-11-12T09:06:31.786Z,11.35
2022-11-12T09:09:01.304Z,12.85
2022-11-12T09:11:29.430Z,11.43
2022-11-12T09:13:57.627Z,11.57
2022-11-12T09:16:25.700Z,10.90
2022-11-12T09:18:53.784Z,9.88
2022-11-12T09:21:24.949Z,9.95
2022-11-12T09:23:53.159Z,9.55
2022-11-12T09:26:22.478Z,8.95
2022-11-12T09:28:54.956Z,10.57
2022-11-12T09:31:25.806Z,9.40
2022-11-12T09:34:01.343Z,8.68
2022-11-12T09:36:29.454Z,8.65
2022-11-12T09:38:58.867Z,8.32
2022-11-12T09:41:37.680Z,8.38
2022-11-12T09:44:11.318Z,8.43
2022-11-12T09:46:44.533Z,8.07
2022-11-12T09:49:20.500Z,8.55
2022-11-12T09:52:18.338Z,10.10
2022-11-12T09:55:03.606Z,9.25
2022-11-12T09:57:35.231Z,8.45
2022-11-12T10:00:03.867Z,8.57
2022-11-12T10:02:40.270Z,9.77
2022-11-12T10:05:18.968Z,9.38
2022-11-12T10:08:06.996Z,10.40
2022-11-12T10:10:46.217Z,11.13
2022-11-12T10:13:32.775Z,12.43
2022-11-12T10:16:37.157Z,10.85
2022-11-12T10:19:34.435Z,7.10
2022-11-12T10:22:15.125Z,7.20
2022-11-12T10:24:46.836Z,8.10
2022-11-12T10:27:19.896Z,7.25
2022-11-12T10:29:55.585Z,7.35
2022-11-12T10:32:23.536Z,8.30
2022-11-12T10:34:51.796Z,9.30
2022-11-12T10:37:25.057Z,10.32
2022-11-12T10:39:53.626Z,9.77
2022-11-12T10:42:23.809Z,8.00
2022-11-12T10:44:53.266Z,8.05
2022-11-12T10:47:27.921Z,6.93
2022-11-12T10:50:06.128Z,6.68
2022-11-12T10:52:34.187Z,6.35
2022-11-12T10:55:08.418Z,7.20
2022-11-12T10:57:36.437Z,6.30
2022-11-12T11:00:18.185Z,6.55
2022-11-12T11:02:51.956Z,6.13
2022-11-12T11:05:35.339Z,6.55
2022-11-12T11:08:07.067Z,6.47
2022-11-12T11:10:39.090Z,6.13
2022-11-12T11:13:23.619Z,6.18
2022-11-12T11:16:03.266Z,6.35
2022-11-12T11:18:34.156Z,7.18
2022-11-12T11:21:10.098Z,6.40
2022-11-12T11:23:52.946Z,6.80
2022-11-12T11:26:34.089Z,7.10
2022-11-12T11:29:17.537Z,6.50
2022-11-12T11:31:53.030Z,6.25
2022-11-12T11:34:37.728Z,6.53
2022-11-12T11:37:16.802Z,6.88
2022-11-12T11:39:59.496Z,7.30
2022-11-12T11:42:58.223Z,6.47
2022-11-12T11:45:36.808Z,6.35
2022-11-12T11:48:15.683Z,6.43
2022-11-12T11:50:52.112Z,6.47
2022-11-12T11:53:25.008Z,6.72
2022-11-12T11:56:03.846Z,6.28
2022-11-12T11:59:00.356Z,5.90
2022-11-12T12:01:34.293Z,6.43
2022-11-12T12:04:33.097Z,6.75
2022-11-12T12:07:16.510Z,6.63
2022-11-12T12:09:55.939Z,6.10
2022-11-12T12:12:40.422Z,6.07
2022-11-12T12:15:29.962Z,6.65
2022-11-12T12:18:09.584Z,6.70
2022-11-12T12:20:45.916Z,5.97
2022-11-12T12:23:20.583Z,6.57
2022-11-12T12:25:50.366Z,6.95
2022-11-12T12:28:30.235Z,7.20
2022-11-12T12:31:02.449Z,7.70
2022-11-12T12:33:36.236Z,7.82
2022-11-12T12:36:10.822Z,7.70
2022-11-12T12:38:44.686Z,8.10
2022-11-12T12:41:19.810Z,9.00
2022-11-12T12:43:53.189Z,7.20
2022-11-12T12:46:26.562Z,6.45
2022-11-12T12:48:56.364Z,5.88
2022-11-12T12:51:29.370Z,6.32
2022-11-12T12:53:57.426Z,5.80
2022-11-12T12:56:52.272Z,6.25
2022-11-12T12:59:24.914Z,6.50
2022-11-12T13:01:59.089Z,5.63
2022-11-12T13:04:53.526Z,6.45
2022-11-12T13:07:41.346Z,6.40
2022-11-12T13:10:56.038Z,6.28
2022-11-12T13:13:33.146Z,6.75
2022-11-12T13:16:02.972Z,6.10
2022-11-12T13:19:02.159Z,6.45
2022-11-12T13:21:32.624Z,13.90
2022-11-12T13:24:09.257Z,6.75
2022-11-12T13:26:50.102Z,6.50
2022-11-12T13:29:24.841Z,6.30
2022-11-12T13:32:26.211Z,6.22
2022-11-12T13:35:35.342Z,8.40
2022-11-12T13:38:12.169Z,8.43
2022-11-12T13:40:46.280Z,7.05
2022-11-12T13:43:31.275Z,7.15
2022-11-12T13:46:06.041Z,6.80
2022-11-12T13:48:41.281Z,7.13
2022-11-12T13:51:16.284Z,10.48
2022-11-12T13:53:44.753Z,10.38
2022-11-12T13:56:30.834Z,6.78
2022-11-12T13:59:14.494Z,8.63
2022-11-12T14:01:43.336Z,9.57
2022-11-12T14:04:25.156Z,10.43
2022-11-12T14:06:55.822Z,11.93
2022-11-12T14:09:47.355Z,10.07
2022-11-12T14:12:43.137Z,8.38
2022-11-12T14:15:30.844Z,9.57
2022-11-12T14:18:07.269Z,10.80
2022-11-12T14:20:37.320Z,10.18
2022-11-12T14:23:10.428Z,9.02
2022-11-12T14:25:47.715Z,9.43
2022-11-12T14:28:31.626Z,9.77
2022-11-12T14:31:01.034Z,9.35
2022-11-12T14:33:30.482Z,8.55
2022-11-12T14:36:02.979Z,10.00
2022-11-12T14:38:34.319Z,10.30
2022-11-12T14:41:06.132Z,10.30
2022-11-12T14:43:41.832Z,9.45
2022-11-12T14:46:21.497Z,10.52
2022-11-12T14:48:53.566Z,11.15
2022-11-12T14:51:23.274Z,12.00
2022-11-12T14:53:56.276Z,9.80
2022-11-12T14:56:35.642Z,10.38
2022-11-12T14:59:05.918Z,10.43
2022-11-12T15:02:14.466Z,10.13
2022-11-12T15:04:26.130Z,9.40
2022-11-12T15:06:55.483Z,11.25
2022-11-12T15:09:35.960Z,11.30
2022-11-12T15:12:06.177Z,11.38
2022-11-12T15:14:36.204Z,9.63
2022-11-12T15:17:05.969Z,9.10
2022-11-12T15:19:34.937Z,11.95
2022-11-12T15:22:04.826Z,11.73
2022-11-12T15:24:34.445Z,11.30
2022-11-12T15:27:34.619Z,9.80
2022-11-12T15:30:17.259Z,10.35
2022-11-12T15:32:46.191Z,10.77
2022-11-12T15:35:34.917Z,11.15
2022-11-12T15:38:07.849Z,17.17
2022-11-12T15:40:46.786Z,16.17
2022-11-12T15:43:19.829Z,16.85
2022-11-12T15:45:53.841Z,17.02
2022-11-12T15:48:23.806Z,16.45
2022-11-12T15:50:51.791Z,15.57
2022-11-12T15:53:19.969Z,15.43
2022-11-12T15:55:48.744Z,16.80
2022-11-12T15:58:19.861Z,26.58
2022-11-12T16:00:48.121Z,27.23
2022-11-12T16:03:19.793Z,20.67
2022-11-12T16:05:48.454Z,18.30
2022-11-12T16:08:16.663Z,15.82
2022-11-12T16:10:46.484Z,15.10
2022-11-12T16:13:18.972Z,15.32
2022-11-12T16:15:47.002Z,22.63
2022-11-12T16:18:14.963Z,19.52
2022-11-12T16:20:44.347Z,15.88
2022-11-12T16:23:12.309Z,13.75
2022-11-12T16:25:43.177Z,13.20
2022-11-12T16:28:15.269Z,12.35
2022-11-12T16:30:45.450Z,11.25
2022-11-12T16:33:22.677Z,11.43
2022-11-12T16:35:58.904Z,11.10
2022-11-12T16:38:26.864Z,11.70
2022-11-12T16:40:54.848Z,11.45
2022-11-12T16:43:23.038Z,10.70
2022-11-12T16:45:51.131Z,13.52
2022-11-12T16:48:20.681Z,12.45
2022-11-12T16:50:49.774Z,13.82
2022-11-12T16:53:19.190Z,15.93
2022-11-12T16:55:47.131Z,19.15
2022-11-12T16:58:16.414Z,17.77
2022-11-12T17:00:46.920Z,26.60
2022-11-12T17:03:15.049Z,31.30
2022-11-12T17:05:43.291Z,18.70
2022-11-12T17:08:11.612Z,16.55
2022-11-12T17:10:41.021Z,16.52
2022-11-12T17:13:11.138Z,14.45
2022-11-12T17:15:41.140Z,13.68
2022-11-12T17:18:10.286Z,12.65
2022-11-12T17:20:40.492Z,13.00
2022-11-12T17:23:10.137Z,16.27
2022-11-12T17:25:38.089Z,15.27
2022-11-12T17:28:07.446Z,17.40
2022-11-12T17:30:35.434Z,17.70
2022-11-12T17:33:03.360Z,22.38
2022-11-12T17:35:33.473Z,20.92
2022-11-12T17:38:01.404Z,19.92
2022-11-12T17:40:29.321Z,21.42
2022-11-12T17:42:57.283Z,20.33
2022-11-12T17:45:26.596Z,20.98
2022-11-12T17:47:54.539Z,19.25
2022-11-12T17:50:24.377Z,19.67
2022-11-12T17:52:52.340Z,17.38
2022-11-12T17:55:20.314Z,15.70
2022-11-12T17:57:50.046Z,13.82
2022-11-12T18:00:19.037Z,13.50
2022-11-12T18:02:48.369Z,13.75
2022-11-12T18:05:16.428Z,12.23
2022-11-12T18:07:44.408Z,12.48
2022-11-12T18:10:16.961Z,12.90
2022-11-12T18:12:47.307Z,12.73
2022-11-12T18:15:15.901Z,13.77
2022-11-12T18:17:43.897Z,30.65
2022-11-12T18:20:13.820Z,26.77
2022-11-12T18:22:44.920Z,18.58
2022-11-12T18:25:13.824Z,16.73
2022-11-12T18:27:41.874Z,12.95
2022-11-12T18:30:15.004Z,16.58
2022-11-12T18:32:45.970Z,23.00
2022-11-12T18:35:15.630Z,18.98
2022-11-12T18:37:43.578Z,16.50
2022-11-12T18:40:12.270Z,12.90
2022-11-12T18:42:40.250Z,43.60
2022-11-12T18:45:09.756Z,14.77
2022-11-12T18:47:37.909Z,24.23
2022-11-12T18:50:08.799Z,15.73
2022-11-12T18:52:38.546Z,11.98
2022-11-12T18:55:07.722Z,15.10
2022-11-12T18:57:35.680Z,18.70
2022-11-12T19:00:03.800Z,13.45
2022-11-12T19:02:31.783Z,19.08
2022-11-12T19:04:59.824Z,40.88
2022-11-12T19:07:27.821Z,21.20
2022-11-12T19:09:57.536Z,12.60
2022-11-12T19:12:25.445Z,10.68
2022-11-12T19:14:53.489Z,9.13
2022-11-12T19:17:21.428Z,7.35
2022-11-12T19:19:49.574Z,10.88
2022-11-12T19:22:17.546Z,15.30
2022-11-12T19:24:45.486Z,22.63
2022-11-12T19:27:14.920Z,18.95
2022-11-12T19:29:42.907Z,16.25
2022-11-12T19:32:10.919Z,20.80
2022-11-12T19:34:38.916Z,20.02
2022-11-12T19:37:31.626Z,20.33
2022-11-12T19:39:55.268Z,25.13
2022-11-12T19:42:24.661Z,30.52
2022-11-12T19:44:52.774Z,54.03
2022-11-12T19:47:20.715Z,44.05
2022-11-12T19:49:48.657Z,31.73
2022-11-12T19:52:16.587Z,23.83
2022-11-12T19:54:44.489Z,45.22
2022-11-12T19:57:12.452Z,77.95
2022-11-12T19:59:41.761Z,64.07
2022-11-12T20:02:12.031Z,37.60
2022-11-12T20:04:40.269Z,27.35
2022-11-12T20:07:09.197Z,19.02
2022-11-12T20:09:38.036Z,16.67
2022-11-12T20:12:07.230Z,16.73
2022-11-12T20:14:35.248Z,17.60
2022-11-12T20:17:04.976Z,16.95
2022-11-12T20:19:33.015Z,17.13
2022-11-12T20:22:00.995Z,17.45
2022-11-12T20:24:31.442Z,15.13
2022-11-12T20:26:59.378Z,13.20
2022-11-12T20:29:29.977Z,13.27
2022-11-12T20:31:57.880Z,12.07
2022-11-12T20:34:27.637Z,12.90
2022-11-12T20:36:56.842Z,12.45
2022-11-12T20:39:24.803Z,11.95
2022-11-12T20:41:52.741Z,11.32
2022-11-12T20:44:20.735Z,12.90
2022-11-12T20:46:48.718Z,13.25
2022-11-12T20:49:19.739Z,15.20
2022-11-12T20:51:51.778Z,15.32
2022-11-12T20:54:21.434Z,15.55
2022-11-12T20:56:51.223Z,14.82
2022-11-12T20:59:19.221Z,15.38
2022-11-12T21:01:47.500Z,15.50
2022-11-12T21:04:17.545Z,16.75
2022-11-12T21:06:45.489Z,16.83
2022-11-12T21:09:15.390Z,16.23
2022-11-12T21:11:43.358Z,18.48
2022-11-12T21:14:12.376Z,16.85
2022-11-12T21:16:40.611Z,21.15
2022-11-12T21:19:08.748Z,15.43
2022-11-12T21:21:36.718Z,17.35
2022-11-12T21:24:05.415Z,14.50
2022-11-12T21:26:35.542Z,12.75
2022-11-12T21:29:04.688Z,11.95
2022-11-12T21:31:32.662Z,14.90
2022-11-12T21:34:04.117Z,14.40
2022-11-12T21:36:35.490Z,16.35
2022-11-12T21:39:03.980Z,16.45
2022-11-12T21:41:32.266Z,16.08
2022-11-12T21:44:01.580Z,16.33
2022-11-12T21:46:31.014Z,15.82
2022-11-12T21:48:59.053Z,15.18
2022-11-12T21:51:28.926Z,13.65
2022-11-12T21:53:58.598Z,13.68
2022-11-12T21:56:27.444Z,13.73
2022-11-12T21:59:00.262Z,12.68
2022-11-12T22:01:31.587Z,13.77
2022-11-12T22:03:59.992Z,14.68
2022-11-12T22:06:30.647Z,18.75
2022-11-12T22:08:59.555Z,19.80
2022-11-12T22:11:28.226Z,14.40
2022-11-12T22:13:56.210Z,14.48
2022-11-12T22:16:26.126Z,11.40
2022-11-12T22:18:56.853Z,10.75
2022-11-12T22:21:26.367Z,12.57
2022-11-12T22:23:54.572Z,13.20
2022-11-12T22:26:25.739Z,16.15
2022-11-12T22:28:56.754Z,19.70
2022-11-12T22:31:28.001Z,24.00
2022-11-12T22:33:58.593Z,19.38
2022-11-12T22:36:28.398Z,18.85
2022-11-12T22:38:56.642Z,18.23
2022-11-12T22:41:26.744Z,15.25
2022-11-12T22:43:56.591Z,14.73
2022-11-12T22:46:26.161Z,19.52
2022-11-12T22:48:54.294Z,28.35
2022-11-12T22:51:25.905Z,22.30
2022-11-12T22:53:57.938Z,25.58
2022-11-12T22:56:29.800Z,25.90
2022-11-12T22:58:58.905Z,27.30
2022-11-12T23:01:29.092Z,21.58
2022-11-12T23:03:59.267Z,25.20
2022-11-12T23:06:30.118Z,29.63
2022-11-12T23:09:00.043Z,22.85
2022-11-12T23:11:28.507Z,26.13
2022-11-12T23:13:57.081Z,24.75
2022-11-12T23:16:26.597Z,27.42
2022-11-12T23:18:55.135Z,24.80
2022-11-12T23:21:24.571Z,25.23
2022-11-12T23:23:54.264Z,25.77
2022-11-12T23:26:24.001Z,29.58
2022-11-12T23:28:52.639Z,25.63
2022-11-12T23:31:22.844Z,19.20
2022-11-12T23:33:52.108Z,19.90
2022-11-12T23:36:21.119Z,18.05
2022-11-12T23:38:49.176Z,21.05
2022-11-12T23:41:20.042Z,17.52
2022-11-12T23:43:48.005Z,23.67
2022-11-12T23:46:16.171Z,18.30
2022-11-12T23:48:44.152Z,17.52
2022-11-12T23:51:14.996Z,15.20
2022-11-12T23:53:43.054Z,14.80
2022-11-12T23:56:13.024Z,16.42
2022-11-12T23:58:43.041Z,16.83
